createdAt,value
2023-03-12T00:02:16.528Z,4.63
2023-03-12T00:04:43.512Z,4.00
2023-03-12T00:07:10.790Z,4.40
2023-03-12T00:09:39.708Z,4.33
2023-03-12T00:12:07.792Z,5.63
2023-03-12T00:14:34.905Z,4.30
2023-03-12T00:17:01.892Z,3.80
2023-03-12T00:19:28.853Z,4.33
2023-03-12T00:21:55.878Z,4.70
2023-03-12T00:24:23.026Z,4.40
2023-03-12T00:26:49.998Z,4.75
2023-03-12T00:29:17.091Z,4.97
2023-03-12T00:31:44.287Z,4.13
2023-03-12T00:34:11.723Z,4.57
2023-03-12T00:36:40.676Z,4.37
2023-03-12T00:39:07.877Z,3.63
2023-03-12T00:41:37.752Z,4.57
2023-03-12T00:44:04.769Z,4.10
2023-03-12T00:46:31.892Z,4.70
2023-03-12T00:48:58.996Z,4.27
2023-03-12T00:51:27.435Z,5.73
2023-03-12T00:53:56.073Z,4.07
2023-03-12T00:56:23.219Z,5.17
2023-03-12T00:58:50.290Z,4.93
2023-03-12T01:01:17.674Z,5.00
2023-03-12T01:03:44.790Z,4.27
2023-03-12T01:06:12.006Z,4.20
2023-03-12T01:08:39.322Z,4.80
2023-03-12T01:11:06.611Z,5.30
2023-03-12T01:13:33.809Z,4.10
2023-03-12T01:16:00.884Z,5.17
2023-03-12T01:18:27.885Z,4.90
2023-03-12T01:20:54.907Z,4.20
2023-03-12T01:23:21.901Z,4.83
2023-03-12T01:25:49.676Z,4.70
2023-03-12T01:28:16.698Z,4.50
2023-03-12T01:30:43.724Z,4.87
2023-03-12T01:33:10.672Z,4.70
2023-03-12T01:35:39.719Z,4.70
2023-03-12T01:38:10.076Z,5.07
2023-03-12T01:40:37.096Z,5.00
2023-03-12T01:43:33.326Z,5.53
2023-03-12T01:46:39.401Z,5.17
2023-03-12T01:49:23.089Z,4.90
2023-03-12T01:52:18.099Z,5.33
2023-03-12T01:55:16.383Z,4.80
2023-03-12T01:57:52.507Z,5.50
2023-03-12T02:00:26.047Z,4.90
2023-03-12T02:03:00.004Z,5.50
2023-03-12T02:05:43.618Z,4.63
2023-03-12T02:08:12.892Z,5.13
2023-03-12T02:10:39.977Z,5.00
2023-03-12T02:13:08.106Z,5.10
2023-03-12T02:15:37.193Z,4.70
2023-03-12T02:18:06.242Z,4.93
2023-03-12T02:21:16.595Z,4.50
2023-03-12T02:23:57.433Z,4.77
2023-03-12T02:26:26.120Z,4.80
2023-03-12T02:28:54.623Z,4.47
2023-03-12T02:31:26.434Z,5.23
2023-03-12T02:33:53.776Z,4.90
2023-03-12T02:36:21.410Z,5.70
2023-03-12T02:38:49.219Z,5.10
2023-03-12T02:41:53.738Z,5.87
2023-03-12T02:44:33.788Z,5.50
2023-03-12T02:47:02.770Z,4.47
2023-03-12T02:49:34.687Z,5.57
2023-03-12T02:52:02.569Z,5.33
2023-03-12T02:54:30.345Z,5.07
2023-03-12T02:56:58.051Z,5.37
2023-03-12T02:59:26.980Z,4.10
2023-03-12T03:01:57.967Z,4.30
2023-03-12T03:04:26.758Z,4.67
2023-03-12T03:06:53.983Z,4.70
2023-03-12T03:09:22.684Z,4.60
2023-03-12T03:11:51.152Z,4.37
2023-03-12T03:14:19.313Z,4.60
2023-03-12T03:16:46.344Z,4.70
2023-03-12T03:19:14.064Z,4.83
2023-03-12T03:21:41.101Z,4.63
2023-03-12T03:24:08.264Z,5.17
2023-03-12T03:26:35.407Z,4.50
2023-03-12T03:29:02.843Z,4.00
2023-03-12T03:31:29.888Z,4.80
2023-03-12T03:33:56.904Z,4.40
2023-03-12T03:36:23.865Z,4.00
2023-03-12T03:38:50.963Z,4.67
2023-03-12T03:41:20.089Z,4.63
2023-03-12T03:43:47.813Z,4.47
2023-03-12T03:46:15.824Z,6.47
2023-03-12T03:48:43.383Z,5.23
2023-03-12T03:51:12.038Z,4.47
2023-03-12T03:53:39.161Z,4.10
2023-03-12T03:56:16.974Z,4.87
2023-03-12T03:58:45.305Z,5.53
2023-03-12T04:01:16.348Z,6.23
2023-03-12T04:03:43.863Z,5.60
2023-03-12T04:06:11.426Z,6.03
2023-03-12T04:08:39.348Z,5.90
2023-03-12T04:11:24.898Z,5.80
2023-03-12T04:13:52.192Z,4.97
2023-03-12T04:16:19.702Z,5.37
2023-03-12T04:18:46.743Z,4.77
2023-03-12T04:21:15.222Z,5.30
2023-03-12T04:23:42.678Z,5.67
2023-03-12T04:26:10.259Z,5.67
2023-03-12T04:28:38.726Z,5.13
2023-03-12T04:31:08.124Z,4.73
2023-03-12T04:33:39.048Z,5.00
2023-03-12T04:36:07.992Z,5.10
2023-03-12T04:38:35.111Z,7.40
2023-03-12T04:41:09.841Z,7.50
2023-03-12T04:43:37.224Z,8.90
2023-03-12T04:46:05.511Z,8.30
2023-03-12T04:48:34.096Z,8.53
2023-03-12T04:51:01.842Z,7.93
2023-03-12T04:53:29.089Z,7.53
2023-03-12T04:55:56.247Z,8.17
2023-03-12T04:58:23.681Z,7.23
2023-03-12T05:00:51.070Z,7.17
2023-03-12T05:03:18.836Z,7.00
2023-03-12T05:05:46.482Z,6.70
2023-03-12T05:08:13.412Z,5.73
2023-03-12T05:10:40.541Z,6.03
2023-03-12T05:13:20.040Z,5.97
2023-03-12T05:15:51.034Z,5.80
2023-03-12T05:18:18.097Z,6.30
2023-03-12T05:20:45.050Z,5.83
2023-03-12T05:23:12.158Z,6.50
2023-03-12T05:25:41.262Z,5.97
2023-03-12T05:28:08.948Z,5.67
2023-03-12T05:30:35.962Z,6.20
2023-03-12T05:33:02.985Z,5.83
2023-03-12T05:35:30.049Z,6.00
2023-03-12T05:37:57.145Z,6.23
2023-03-12T05:40:24.164Z,6.50
2023-03-12T05:42:51.119Z,6.93
2023-03-12T05:45:20.194Z,4.80
2023-03-12T05:47:47.197Z,6.57
2023-03-12T05:50:16.603Z,6.43
2023-03-12T05:52:43.617Z,6.53
2023-03-12T05:55:10.793Z,6.00
2023-03-12T05:57:37.896Z,6.93
2023-03-12T06:00:06.530Z,6.27
2023-03-12T06:02:33.678Z,6.70
2023-03-12T06:05:00.711Z,7.40
2023-03-12T06:07:27.752Z,6.13
2023-03-12T06:09:54.729Z,6.67
2023-03-12T06:12:21.729Z,6.87
2023-03-12T06:14:48.699Z,6.40
2023-03-12T06:17:15.673Z,6.80
2023-03-12T06:19:44.364Z,6.80
2023-03-12T06:22:11.393Z,6.43
2023-03-12T06:24:38.295Z,6.77
2023-03-12T06:27:05.460Z,6.97
2023-03-12T06:29:32.451Z,7.43
2023-03-12T06:31:59.532Z,6.83
2023-03-12T06:34:27.259Z,6.67
2023-03-12T06:36:54.354Z,7.07
2023-03-12T06:39:21.454Z,6.90
2023-03-12T06:41:48.512Z,7.90
2023-03-12T06:44:15.635Z,6.63
2023-03-12T06:46:44.804Z,7.23
2023-03-12T06:49:12.143Z,8.17
2023-03-12T06:51:39.224Z,6.80
2023-03-12T06:54:06.310Z,7.33
2023-03-12T06:56:33.627Z,7.30
2023-03-12T06:59:00.795Z,7.43
2023-03-12T07:01:28.054Z,6.13
2023-03-12T07:03:55.062Z,7.30
2023-03-12T07:06:23.706Z,6.50
2023-03-12T07:08:52.367Z,7.40
2023-03-12T07:11:19.488Z,7.40
2023-03-12T07:13:46.982Z,6.37
2023-03-12T07:16:15.795Z,6.60
2023-03-12T07:18:43.154Z,5.90
2023-03-12T07:21:10.303Z,5.93
2023-03-12T07:23:37.227Z,7.30
2023-03-12T07:26:06.132Z,6.07
2023-03-12T07:28:33.214Z,5.50
2023-03-12T07:31:03.662Z,5.20
2023-03-12T07:33:30.904Z,5.47
2023-03-12T07:35:58.338Z,5.70
2023-03-12T07:38:25.575Z,6.13
2023-03-12T07:40:56.065Z,6.63
2023-03-12T07:43:24.765Z,5.60
2023-03-12T07:45:52.427Z,6.00
2023-03-12T07:48:20.588Z,5.30
2023-03-12T07:50:48.620Z,5.30
2023-03-12T07:53:16.054Z,5.60
2023-03-12T07:55:46.350Z,5.20
2023-03-12T07:58:15.838Z,5.23
2023-03-12T08:00:43.302Z,6.60
2023-03-12T08:03:11.024Z,5.50
2023-03-12T08:05:38.353Z,6.80
2023-03-12T08:08:05.905Z,5.80
2023-03-12T08:10:33.051Z,5.00
2023-03-12T08:13:00.138Z,5.20
2023-03-12T08:15:27.141Z,6.37
2023-03-12T08:17:54.123Z,5.90
2023-03-12T08:20:21.048Z,5.87
2023-03-12T08:22:48.563Z,6.57
2023-03-12T08:25:16.380Z,6.17
2023-03-12T08:27:43.330Z,5.80
2023-03-12T08:30:11.509Z,4.97
2023-03-12T08:32:38.752Z,4.47
2023-03-12T08:35:06.441Z,6.10
2023-03-12T08:37:33.474Z,5.07
2023-03-12T08:40:00.902Z,5.50
2023-03-12T08:42:28.468Z,5.47
2023-03-12T08:44:55.508Z,5.33
2023-03-12T08:47:22.460Z,5.07
2023-03-12T08:49:49.431Z,5.37
2023-03-12T08:52:16.942Z,5.70
2023-03-12T08:54:44.118Z,5.83
2023-03-12T08:57:11.180Z,5.33
2023-03-12T08:59:38.318Z,5.17
2023-03-12T09:02:05.422Z,5.33
2023-03-12T09:04:32.514Z,4.60
2023-03-12T09:07:01.780Z,5.10
2023-03-12T09:09:28.917Z,5.37
2023-03-12T09:11:56.018Z,5.43
2023-03-12T09:15:00.997Z,5.70
2023-03-12T09:17:10.200Z,5.57
2023-03-12T09:19:37.185Z,4.73
2023-03-12T09:22:04.163Z,5.90
2023-03-12T09:24:31.225Z,5.50
2023-03-12T09:26:58.266Z,6.30
2023-03-12T09:29:25.515Z,5.67
2023-03-12T09:31:52.749Z,5.30
2023-03-12T09:34:20.105Z,5.07
2023-03-12T09:36:47.119Z,4.53
2023-03-12T09:39:14.062Z,4.70
2023-03-12T09:41:45.544Z,5.33
2023-03-12T09:44:24.327Z,5.03
2023-03-12T09:46:58.488Z,5.00
2023-03-12T09:49:48.631Z,5.17
2023-03-12T09:52:27.375Z,4.70
2023-03-12T09:55:25.187Z,4.93
2023-03-12T09:57:52.985Z,4.60
2023-03-12T10:00:30.099Z,4.27
2023-03-12T10:03:57.140Z,5.40
2023-03-12T10:06:35.889Z,5.20
2023-03-12T10:09:49.217Z,4.70
2023-03-12T10:12:29.925Z,5.03
2023-03-12T10:15:43.375Z,5.20
2023-03-12T10:18:13.369Z,4.30
2023-03-12T10:20:54.418Z,4.70
2023-03-12T10:23:46.773Z,4.63
2023-03-12T10:26:41.378Z,5.07
2023-03-12T10:29:41.092Z,5.00
2023-03-12T10:32:12.130Z,5.53
2023-03-12T10:34:51.406Z,5.53
2023-03-12T10:37:37.842Z,5.33
2023-03-12T10:40:06.388Z,5.00
2023-03-12T10:42:33.828Z,5.70
2023-03-12T10:45:39.188Z,11.70
2023-03-12T10:48:12.055Z,7.10
2023-03-12T10:50:41.946Z,57.63
2023-03-12T10:53:36.442Z,10.30
2023-03-12T10:56:05.226Z,80.83
2023-03-12T10:58:45.605Z,8.63
2023-03-12T11:01:15.296Z,37.17
2023-03-12T11:03:43.874Z,6.40
2023-03-12T11:06:26.283Z,8.70
2023-03-12T11:09:16.964Z,4.73
2023-03-12T11:11:50.364Z,6.17
2023-03-12T11:14:26.395Z,16.20
2023-03-12T11:16:57.217Z,15.10
2023-03-12T11:19:32.757Z,10.37
2023-03-12T11:22:11.729Z,11.20
2023-03-12T11:25:00.184Z,7.80
2023-03-12T11:27:51.134Z,47.40
2023-03-12T11:30:25.535Z,16.20
2023-03-12T11:32:53.164Z,7.13
2023-03-12T11:35:57.343Z,41.50
2023-03-12T11:39:12.454Z,10.60
2023-03-12T11:42:10.410Z,6.67
2023-03-12T11:45:07.251Z,8.53
2023-03-12T11:47:50.018Z,7.73
2023-03-12T11:50:43.709Z,7.53
2023-03-12T11:53:48.737Z,7.00
2023-03-12T11:56:27.247Z,8.07
2023-03-12T11:59:33.617Z,6.43
2023-03-12T12:02:18.382Z,6.83
2023-03-12T12:04:57.231Z,7.80
2023-03-12T12:07:31.642Z,6.57
2023-03-12T12:10:28.267Z,53.97
2023-03-12T12:13:13.816Z,26.87
2023-03-12T12:16:19.054Z,7.00
2023-03-12T12:18:55.200Z,30.40
2023-03-12T12:21:43.387Z,6.43
2023-03-12T12:24:28.612Z,6.47
2023-03-12T12:27:21.482Z,5.87
2023-03-12T12:30:06.672Z,5.90
2023-03-12T12:33:04.099Z,5.93
2023-03-12T12:35:38.786Z,4.97
2023-03-12T12:38:30.659Z,7.10
2023-03-12T12:41:23.128Z,19.10
2023-03-12T12:43:56.273Z,5.90
2023-03-12T12:46:36.581Z,5.97
2023-03-12T12:49:23.310Z,5.13
2023-03-12T12:52:01.488Z,4.60
2023-03-12T12:54:51.333Z,4.90
2023-03-12T12:58:47.154Z,4.13
2023-03-12T13:01:16.657Z,3.30
2023-03-12T13:03:44.892Z,5.43
2023-03-12T13:06:12.098Z,13.30
2023-03-12T13:08:44.782Z,4.63
2023-03-12T13:11:20.621Z,20.93
2023-03-12T13:14:14.495Z,8.23
2023-03-12T13:16:48.688Z,6.23
2023-03-12T13:19:16.179Z,6.30
2023-03-12T13:22:16.698Z,5.70
2023-03-12T13:24:59.534Z,5.00
2023-03-12T13:27:37.203Z,5.20
2023-03-12T13:30:33.436Z,5.60
2023-03-12T13:33:03.436Z,5.73
2023-03-12T13:35:37.533Z,5.30
2023-03-12T13:38:13.071Z,5.63
2023-03-12T13:40:55.812Z,5.20
2023-03-12T13:43:37.888Z,5.90
2023-03-12T13:46:10.460Z,5.67
2023-03-12T13:48:46.858Z,5.90
2023-03-12T13:51:21.134Z,5.27
2023-03-12T13:53:54.321Z,5.73
2023-03-12T13:56:31.333Z,5.70
2023-03-12T13:59:01.227Z,6.13
2023-03-12T14:01:35.802Z,6.50
2023-03-12T14:04:11.554Z,6.40
2023-03-12T14:07:13.714Z,7.23
2023-03-12T14:09:58.645Z,6.80
2023-03-12T14:12:50.285Z,6.80
2023-03-12T14:15:28.868Z,7.30
2023-03-12T14:18:04.195Z,7.80
2023-03-12T14:20:32.204Z,6.47
2023-03-12T14:23:09.750Z,7.10
2023-03-12T14:25:44.313Z,7.20
2023-03-12T14:28:21.614Z,6.80
2023-03-12T14:31:15.226Z,7.23
2023-03-12T14:34:21.028Z,6.93
2023-03-12T14:37:20.749Z,6.77
2023-03-12T14:40:07.244Z,6.77
2023-03-12T14:42:36.962Z,6.70
2023-03-12T14:45:06.808Z,6.60
2023-03-12T14:47:46.127Z,7.13
2023-03-12T14:50:29.496Z,6.60
2023-03-12T14:53:27.824Z,5.93
2023-03-12T14:56:05.233Z,6.77
2023-03-12T14:58:33.387Z,6.77
2023-03-12T15:01:05.552Z,7.30
2023-03-12T15:03:42.439Z,7.03
2023-03-12T15:06:38.817Z,6.80
2023-03-12T15:09:08.182Z,6.20
2023-03-12T15:11:37.949Z,6.30
2023-03-12T15:14:14.798Z,6.20
2023-03-12T15:16:44.071Z,5.90
2023-03-12T15:19:15.074Z,7.17
2023-03-12T15:21:45.891Z,6.47
2023-03-12T15:24:14.579Z,6.90
2023-03-12T15:26:43.965Z,6.27
2023-03-12T15:29:28.812Z,6.67
2023-03-12T15:31:59.897Z,6.83
2023-03-12T15:34:35.580Z,5.80
2023-03-12T15:37:41.506Z,6.60
2023-03-12T15:40:24.862Z,6.70
2023-03-12T15:42:55.104Z,7.00
2023-03-12T15:45:36.710Z,7.57
2023-03-12T15:48:30.450Z,6.73
2023-03-12T15:50:57.987Z,6.97
2023-03-12T15:53:31.124Z,7.37
2023-03-12T15:56:21.858Z,8.10
2023-03-12T15:59:01.713Z,8.20
2023-03-12T16:01:29.241Z,8.17
2023-03-12T16:03:56.428Z,6.27
2023-03-12T16:06:30.240Z,7.13
2023-03-12T16:09:06.444Z,7.30
2023-03-12T16:11:37.461Z,6.73
2023-03-12T16:14:18.197Z,7.00
2023-03-12T16:16:46.451Z,7.93
2023-03-12T16:19:21.049Z,7.60
2023-03-12T16:21:49.358Z,9.30
2023-03-12T16:24:17.129Z,8.10
2023-03-12T16:26:56.683Z,9.83
2023-03-12T16:29:38.601Z,13.03
2023-03-12T16:32:15.669Z,9.97
2023-03-12T16:34:44.320Z,9.10
2023-03-12T16:37:15.783Z,8.20
2023-03-12T16:39:46.467Z,8.80
2023-03-12T16:42:25.380Z,8.90
2023-03-12T16:44:52.293Z,9.77
2023-03-12T16:47:19.405Z,9.20
2023-03-12T16:49:46.523Z,8.50
2023-03-12T16:52:23.261Z,9.90
2023-03-12T16:54:51.947Z,9.50
2023-03-12T16:57:28.203Z,9.00
2023-03-12T16:59:55.571Z,8.97
2023-03-12T17:02:22.882Z,10.00
2023-03-12T17:04:51.164Z,8.33
2023-03-12T17:07:18.334Z,8.93
2023-03-12T17:09:45.397Z,8.57
2023-03-12T17:12:31.708Z,8.50
2023-03-12T17:15:00.592Z,8.90
2023-03-12T17:17:27.588Z,8.77
2023-03-12T17:19:54.593Z,9.60
2023-03-12T17:22:22.601Z,10.23
2023-03-12T17:24:49.723Z,11.97
2023-03-12T17:27:16.702Z,12.67
2023-03-12T17:29:43.865Z,11.83
2023-03-12T17:32:13.925Z,11.47
2023-03-12T17:34:40.831Z,10.93
2023-03-12T17:37:08.159Z,10.33
2023-03-12T17:39:35.832Z,11.40
2023-03-12T17:42:04.041Z,9.87
2023-03-12T17:44:35.164Z,10.37
2023-03-12T17:47:02.730Z,9.50
2023-03-12T17:49:30.710Z,9.30
2023-03-12T17:51:57.868Z,9.13
2023-03-12T17:54:25.033Z,10.63
2023-03-12T17:56:51.969Z,19.50
2023-03-12T17:59:19.653Z,17.53
2023-03-12T18:01:46.708Z,13.30
2023-03-12T18:04:13.707Z,10.63
2023-03-12T18:06:40.828Z,11.00
2023-03-12T18:09:07.808Z,11.00
2023-03-12T18:11:34.838Z,9.87
2023-03-12T18:14:02.116Z,9.60
2023-03-12T18:16:29.362Z,8.77
2023-03-12T18:18:56.795Z,8.73
2023-03-12T18:21:23.863Z,10.50
2023-03-12T18:23:51.256Z,9.43
2023-03-12T18:26:18.158Z,9.70
2023-03-12T18:28:45.225Z,8.83
2023-03-12T18:31:12.385Z,9.60
2023-03-12T18:33:39.451Z,9.90
2023-03-12T18:36:07.109Z,11.67
2023-03-12T18:38:35.761Z,9.33
2023-03-12T18:41:09.167Z,8.47
2023-03-12T18:43:37.158Z,9.17
2023-03-12T18:46:05.531Z,10.23
2023-03-12T18:48:32.832Z,9.97
2023-03-12T18:50:59.994Z,10.30
2023-03-12T18:53:26.995Z,9.13
2023-03-12T18:55:58.302Z,9.67
2023-03-12T18:58:29.406Z,11.47
2023-03-12T19:00:58.841Z,13.50
2023-03-12T19:03:27.193Z,14.20
2023-03-12T19:06:07.382Z,12.33
2023-03-12T19:08:37.952Z,11.83
2023-03-12T19:11:13.378Z,14.17
2023-03-12T19:13:41.316Z,17.50
2023-03-12T19:16:12.704Z,17.30
2023-03-12T19:18:41.123Z,16.90
2023-03-12T19:21:10.131Z,15.27
2023-03-12T19:23:37.517Z,17.10
2023-03-12T19:26:05.386Z,18.03
2023-03-12T19:28:33.043Z,18.20
2023-03-12T19:31:03.334Z,17.60
2023-03-12T19:33:31.522Z,23.70
2023-03-12T19:36:02.227Z,28.27
2023-03-12T19:38:30.609Z,25.97
2023-03-12T19:41:01.204Z,28.30
2023-03-12T19:43:28.776Z,19.93
2023-03-12T19:45:56.712Z,20.67
2023-03-12T19:48:29.072Z,17.03
2023-03-12T19:50:56.739Z,19.03
2023-03-12T19:53:25.034Z,13.20
2023-03-12T19:55:52.877Z,13.47
2023-03-12T19:58:21.102Z,11.77
2023-03-12T20:00:49.868Z,11.90
2023-03-12T20:03:18.478Z,13.00
2023-03-12T20:05:46.495Z,16.33
2023-03-12T20:08:14.775Z,14.63
2023-03-12T20:10:41.798Z,16.20
2023-03-12T20:13:13.797Z,23.63
2023-03-12T20:15:40.783Z,19.13
2023-03-12T20:18:09.447Z,20.20
2023-03-12T20:20:38.573Z,16.83
2023-03-12T20:23:09.487Z,15.90
2023-03-12T20:25:41.497Z,13.27
2023-03-12T20:28:11.251Z,15.07
2023-03-12T20:30:42.639Z,14.30
2023-03-12T20:33:11.298Z,14.37
2023-03-12T20:35:38.734Z,15.67
2023-03-12T20:38:06.823Z,15.47
2023-03-12T20:40:34.085Z,15.30
2023-03-12T20:43:05.289Z,14.10
2023-03-12T20:45:34.603Z,14.67
2023-03-12T20:48:01.898Z,14.50
2023-03-12T20:50:30.691Z,13.90
2023-03-12T20:52:57.660Z,14.13
2023-03-12T20:55:25.084Z,16.83
2023-03-12T20:57:52.191Z,16.87
2023-03-12T21:00:21.992Z,15.23
2023-03-12T21:02:49.056Z,17.30
2023-03-12T21:05:18.552Z,17.30
2023-03-12T21:07:46.779Z,17.03
2023-03-12T21:10:13.952Z,17.63
2023-03-12T21:12:42.454Z,17.37
2023-03-12T21:15:12.692Z,16.77
2023-03-12T21:17:41.331Z,15.67
2023-03-12T21:20:17.564Z,18.50
2023-03-12T21:22:46.961Z,17.13
2023-03-12T21:25:14.120Z,19.57
2023-03-12T21:27:50.529Z,19.33
2023-03-12T21:30:19.710Z,19.50
2023-03-12T21:32:46.880Z,18.80
2023-03-12T21:35:13.832Z,21.40
2023-03-12T21:37:40.876Z,22.70
2023-03-12T21:40:09.489Z,23.03
2023-03-12T21:42:36.548Z,23.73
2023-03-12T21:45:04.388Z,24.60
2023-03-12T21:47:31.450Z,28.23
2023-03-12T21:49:58.549Z,26.60
2023-03-12T21:52:25.526Z,25.27
2023-03-12T21:54:52.507Z,26.13
2023-03-12T21:57:19.507Z,26.00
2023-03-12T21:59:46.462Z,27.30
2023-03-12T22:02:15.794Z,25.80
2023-03-12T22:04:42.839Z,24.97
2023-03-12T22:07:10.164Z,24.93
2023-03-12T22:09:37.085Z,25.30
2023-03-12T22:12:04.698Z,24.47
2023-03-12T22:14:31.884Z,25.20
2023-03-12T22:16:58.879Z,27.37
2023-03-12T22:19:25.982Z,27.00
2023-03-12T22:21:52.998Z,27.63
2023-03-12T22:24:19.995Z,27.20
2023-03-12T22:26:47.439Z,28.53
2023-03-12T22:29:14.460Z,27.40
2023-03-12T22:31:41.522Z,25.63
2023-03-12T22:34:09.194Z,25.17
2023-03-12T22:36:39.385Z,25.67
2023-03-12T22:39:06.509Z,24.83
2023-03-12T22:41:33.634Z,25.57
2023-03-12T22:44:07.723Z,25.60
2023-03-12T22:46:35.194Z,29.47
2023-03-12T22:49:05.220Z,27.80
2023-03-12T22:51:33.261Z,27.27
2023-03-12T22:54:01.215Z,26.17
2023-03-12T22:56:28.951Z,25.87
2023-03-12T22:58:56.400Z,28.07
2023-03-12T23:01:24.121Z,26.50
2023-03-12T23:03:52.007Z,26.63
2023-03-12T23:06:26.409Z,26.10
2023-03-12T23:08:55.231Z,26.10
2023-03-12T23:11:25.745Z,25.10
2023-03-12T23:13:54.170Z,26.47
2023-03-12T23:16:25.867Z,26.80
2023-03-12T23:18:54.031Z,26.07
2023-03-12T23:21:24.065Z,25.80
2023-03-12T23:23:52.272Z,25.10
2023-03-12T23:26:29.469Z,26.53
2023-03-12T23:28:59.119Z,26.63
2023-03-12T23:31:27.994Z,27.13
2023-03-12T23:33:58.734Z,25.97
2023-03-12T23:36:26.144Z,27.23
2023-03-12T23:38:53.158Z,24.57
2023-03-12T23:41:23.913Z,26.10
2023-03-12T23:43:52.688Z,25.33
2023-03-12T23:46:20.480Z,24.10
2023-03-12T23:48:47.758Z,26.40
2023-03-12T23:51:24.625Z,26.70
2023-03-12T23:53:56.528Z,24.07
2023-03-12T23:56:27.438Z,25.83
2023-03-12T23:58:54.861Z,24.70
